ADDS METAR Data INFO
IDs: Format: Raw Decoded Include TAF

Data at: 0717 UTC 24 Jun 2018

KPWM 240651Z AUTO 00000KT 10SM OVC019 13/12 A2980 RMK AO2 SLP091 T01280117 $
KPWM 240551Z AUTO 00000KT 10SM OVC021 13/12 A2982 RMK AO2 SLP098 60000 T01280117 10133 20122 56008 $
KPWM 240451Z AUTO VRB04KT 10SM FEW005 OVC020 13/12 A2982 RMK AO2 RAB37E47 SLP098 P0000 T01280117 401890117 $
KPWM 240446Z AUTO 33003KT 10SM -RA FEW005 OVC020 13/12 A2982 RMK AO2 RAB37 P0000 $
KPWM 240404Z 31003KT 10SM SCT014 OVC020 13/12 A2984 RMK AO2 T01280117 $
KPWM 240351Z 31003KT 10SM FEW007 OVC014 13/12 A2985 RMK AO2 DZE24 SLP106 LAST P0000 T01280117 $
KPWM 240251Z VRB03KT 10SM -DZ FEW007 OVC013 13/12 A2985 RMK AO2 DZE16B50 SLP109 P0000 60000 T01280117 58008 $
KPWM 240151Z VRB04KT 9SM -DZ FEW007 BKN019 OVC027 13/12 A2987 RMK AO2 DZB49 SLP114 P0000 T01280117
KPWM 240051Z VRB04KT 10SM OVC017 13/12 A2987 RMK AO2 RAE05 SLP114 P0000 T01280117
KPWM 232351Z VRB03KT 10SM -RA SCT017 BKN023 OVC032 13/12 A2988 RMK AO2 RAB10E26B49 SLP116 P0001 60017 T01330122 10167 20133 55012
KPWM 232341Z VRB04KT 10SM BKN017 OVC032 13/12 A2987 RMK AO2 RAB10E26 P0001 T01330122
KPWM 232251Z VRB04KT 10SM BKN014 OVC020 14/12 A2987 RMK AO2 RAE2157 SLP116 P0000 T01390122
KPWM 232228Z VRB05KT 10SM BKN014 OVC037 14/12 A2988 RMK AO2 RAE2157 P0000 T01390117
KPWM 232151Z VRB06KT 10SM -RA FEW010 OVC036 14/11 A2989 RMK AO2 RAB18 SLP120 P0000 T01390111
KPWM 232051Z VRB06KT 10SM FEW015 BKN043 OVC055 14/11 A2991 RMK AO2 SLP128 60016 T01390106 56024
KPWM 231951Z VRB06KT 10SM FEW015 SCT034 BKN060 OVC130 13/11 A2993 RMK AO2 RAE41 SLP133 P0009 T01330106
KPWM 231925Z VRB06KT 10SM -RA FEW015 SCT038 BKN060 OVC130 14/09 A2993 RMK AO2 PRESFR P0008 T01390094
KPWM 231914Z VRB05KT 2SM +RA FEW010 SCT022 OVC040 14/09 A2995 RMK AO2 P0004 T01390094
KPWM 231851Z VRB04KT 7SM -RA FEW010 BKN046 OVC080 16/13 A2996 RMK AO2 SLP146 P0007 T01560133
KPWM 231751Z 11010KT 10SM -RA OVC090 17/12 A2998 RMK AO2 RAB41 SLP152 P0000 60000 T01670122 10189 20150 58012
KPWM 231651Z 09006KT 10SM BKN095 OVC160 18/12 A3000 RMK AO2 SLP160 T01830122
KPWM 231551Z 08006KT 10SM BKN100 18/14 A3001 RMK AO2 RAE10 SLP161 P0000 T01830139
KPWM 231451Z 09008KT 10SM -RA FEW075 OVC100 17/14 A3001 RMK AO2 RAB49 SLP163 P0000 60000 T01670139 58009
KPWM 231351Z 12003KT 10SM BKN110 OVC160 17/14 A3003 RMK AO2 RAE20 SLP169 P0000 T01670144
KPWM 231251Z 00000KT 10SM -RA FEW090 BKN110 OVC160 16/14 A3004 RMK AO2 RAB35 SLP171 P0000 T01610144
KPWM 231151Z 00000KT 10SM FEW090 BKN110 OVC160 15/13 A3004 RMK AO2 RAB07E47 SLP173 P0001 60001 70001 T01500133 10150 20117 55000
KPWM 231051Z 10SM BKN160 14/12 A3004 RMK AO2 SLP171 T01440122
KPWM 230951Z 00000KT 10SM BKN160 13/11 A3003 RMK AO2 SLP170 T01280111
KPWM 230851Z 00000KT 10SM BKN180 13/11 A3004 RMK AO2 SLP172 T01330106 56007
KPWM 230751Z 00000KT 10SM CLR 13/11 A3004 RMK AO2 SLP173 T01330111
KPWM 230651Z 00000KT 10SM CLR 13/11 A3005 RMK AO2 SLP175 T01330111
KPWM 230551Z 23003KT 10SM CLR 14/12 A3006 RMK AO2 SLP180 T01440117 10167 20144 57001
KPWM 230451Z 22003KT 10SM CLR 15/12 A3007 RMK AO2 SLP181 T01500117 402110106
KPWM 230351Z 00000KT 10SM BKN250 16/13 A3006 RMK AO2 SLP179 LAST T01560128
KPWM 230251Z 00000KT 10SM BKN250 16/12 A3007 RMK AO2 SLP181 T01560122 50003
KPWM 230151Z 18004KT 10SM FEW160 BKN250 16/12 A3007 RMK AO2 SLP183 T01560122
KPWM 230051Z 18005KT 10SM FEW120 FEW160 OVC250 16/12 A3006 RMK AO2 SLP179 T01610117
KPWM 222351Z 18006KT 10SM FEW120 FEW160 OVC250 17/11 A3006 RMK AO2 SLP178 T01720111 10206 20172 53000
KPWM 222251Z 18008G16KT 10SM FEW150 BKN250 18/10 A3005 RMK AO2 SLP176 T01780100
KPWM 222151Z 17012G19KT 10SM FEW150 BKN250 19/09 A3005 RMK AO2 SLP175 T01890089
KPWM 222051Z 16009KT 10SM BKN250 20/09 A3006 RMK AO2 SLP177 T02000089 58005
KPWM 221951Z 18008G18KT 10SM FEW060 SCT250 21/09 A3006 RMK AO2 SLP180 T02060089